Villa Hills, Kentucky
Current Conditions -  °F | °C
As of 4:15 AM on Thursday 23 Oct 2014 (Local Time) from KI69 Reporting Station
Overcast Overcast  
Wind Chill: 46°   Ceiling: 3100
Heat Index: 46°   Visibility: 10mi
Dew Point: 43°   Wind: 3mph
Humidity: 87%   Direction: 330°NNW
Pressure: 30.25"   Gusts: NA
Location:  39.0279°N, 84.5635°W
Report Text: KI69 230815Z AUTO 33003KT 10SM OVC031 08/06 A3025 RMK AO1
Loading
Personal Weather Stations






























Interactive Weather Map
Tropical Storm Tracking
New forecast layout! Learn more

10-Day Weather Forecast

Advertisements
Track Severe Weather on mobile